Time;durP1;ratioP1;P1;durP2;ratioP2;P2;SDS_P1;SDS_P2;PMS_P1;PMS_P2;Temp;Humidity;BMP_temperature;BMP_pressure;BME280_temperature;BME280_humidity;BME280_pressure;Samples;Min_cycle;Max_cycle;Signal;HPM_P1;HPM_P2
2023/07/24 00:01:14;;;;;;;8.80;5.25;;;18.20;99.90;;;;;;5035927;28;20083;-68
2023/07/24 00:03:39;;;;;;;7.55;4.55;;;18.30;99.90;;;;;;5036274;28;20022;-69
2023/07/24 00:06:05;;;;;;;6.07;4.63;;;18.30;99.90;;;;;;5036195;28;20029;-68
2023/07/24 00:08:30;;;;;;;5.68;3.95;;;18.30;99.90;;;;;;5036300;28;20041;-68
2023/07/24 00:10:56;;;;;;;5.60;4.13;;;18.30;99.90;;;;;;5035748;28;20032;-69
2023/07/24 00:13:21;;;;;;;6.68;4.50;;;18.30;99.90;;;;;;5035594;28;20021;-68
2023/07/24 00:15:47;;;;;;;7.35;4.30;;;18.30;99.90;;;;;;5036075;28;20100;-68
2023/07/24 00:18:13;;;;;;;7.18;4.93;;;18.30;99.90;;;;;;5035947;28;20124;-68
2023/07/24 00:20:38;;;;;;;6.28;4.25;;;18.30;99.90;;;;;;5035971;28;20439;-68
2023/07/24 00:23:04;;;;;;;6.40;4.20;;;18.30;99.90;;;;;;5035391;28;20032;-68
2023/07/24 00:25:30;;;;;;;7.20;4.53;;;18.20;99.90;;;;;;5035939;28;20033;-68
2023/07/24 00:27:55;;;;;;;6.68;3.88;;;18.20;99.90;;;;;;5035542;28;20026;-68
2023/07/24 00:30:22;;;;;;;7.93;4.68;;;18.10;99.90;;;;;;5035819;28;20029;-69
2023/07/24 00:32:47;;;;;;;10.13;4.57;;;18.10;99.90;;;;;;5035584;28;20128;-68
2023/07/24 00:35:13;;;;;;;6.30;3.88;;;18.20;99.90;;;;;;5035309;28;20112;-68
2023/07/24 00:37:38;;;;;;;5.47;4.03;;;18.20;99.90;;;;;;5035568;28;20120;-70
2023/07/24 00:40:04;;;;;;;6.80;4.47;;;18.10;99.90;;;;;;5035676;28;20119;-68
2023/07/24 00:42:30;;;;;;;6.90;4.03;;;18.10;99.90;;;;;;5035755;28;20036;-68
2023/07/24 00:44:55;;;;;;;8.23;4.30;;;18.10;99.90;;;;;;5035400;28;20395;-69
2023/07/24 00:47:22;;;;;;;5.38;4.07;;;18.00;99.90;;;;;;5035036;28;20053;-69
2023/07/24 00:49:48;;;;;;;6.93;4.50;;;18.00;99.90;;;;;;5035456;28;20112;-68
2023/07/24 00:52:15;;;;;;;6.63;4.65;;;18.00;99.90;;;;;;5035417;28;20084;-68
2023/07/24 00:54:40;;;;;;;6.30;4.95;;;18.00;99.90;;;;;;5035099;28;20029;-68
2023/07/24 00:57:06;;;;;;;7.05;4.80;;;17.90;99.90;;;;;;5035333;28;20037;-68
2023/07/24 00:59:33;;;;;;;5.88;4.93;;;17.80;99.90;;;;;;5035336;28;20041;-69
2023/07/24 01:01:58;;;;;;;7.00;5.28;;;17.80;99.90;;;;;;5035111;28;20025;-68
2023/07/24 01:04:24;;;;;;;6.45;5.05;;;17.80;99.90;;;;;;5035110;28;20033;-68
2023/07/24 01:06:49;;;;;;;6.00;4.43;;;17.70;99.90;;;;;;5034996;28;20369;-69
2023/07/24 01:09:15;;;;;;;5.78;4.57;;;17.60;99.90;;;;;;5034958;28;20030;-69
2023/07/24 01:11:48;;;;;;;11.15;4.88;;;17.50;99.90;;;;;;5034961;28;20116;-70
2023/07/24 01:14:54;;;;;;;5.40;4.65;;;17.50;99.90;;;;;;5034563;28;20479;-70
2023/07/24 01:17:24;;;;;;;6.30;4.88;;;17.40;99.90;;;;;;5034961;28;20033;-69
2023/07/24 01:19:55;;;;;;;7.30;5.00;;;17.50;99.90;;;;;;5034821;28;20032;-68
2023/07/24 01:25:11;;;;;;;6.20;4.75;;;17.40;99.90;;;;;;5090880;28;20857;-69
2023/07/24 01:27:41;;;;;;;8.25;4.88;;;17.30;99.90;;;;;;5090652;28;20032;-69
2023/07/24 01:30:08;;;;;;;8.98;5.35;;;17.20;99.90;;;;;;5090804;28;20021;-69
2023/07/24 01:32:33;;;;;;;9.65;5.35;;;17.30;99.90;;;;;;5090880;28;20039;-69
2023/07/24 01:34:59;;;;;;;10.88;5.80;;;17.30;99.90;;;;;;5090660;28;20123;-68
2023/07/24 01:37:26;;;;;;;10.30;5.95;;;17.40;99.90;;;;;;5090744;28;20035;-68
2023/07/24 01:39:53;;;;;;;7.80;6.10;;;17.50;99.90;;;;;;5090768;28;20502;-68
2023/07/24 01:42:18;;;;;;;9.57;6.75;;;17.50;99.90;;;;;;5090094;28;20024;-68
2023/07/24 01:44:44;;;;;;;10.65;6.25;;;17.60;99.90;;;;;;5090334;28;20032;-69
2023/07/24 01:47:09;;;;;;;8.20;5.32;;;17.60;99.90;;;;;;5090662;28;20024;-69
2023/07/24 01:49:35;;;;;;;11.55;5.70;;;17.70;99.90;;;;;;5090555;28;20474;-68
2023/07/24 01:52:00;;;;;;;7.28;5.93;;;17.80;99.90;;;;;;5089974;28;20019;-69
2023/07/24 01:54:26;;;;;;;5.63;4.60;;;17.80;99.90;;;;;;5090415;28;20040;-69
2023/07/24 01:56:52;;;;;;;7.13;4.75;;;17.80;99.90;;;;;;5090320;28;20028;-68
2023/07/24 01:59:17;;;;;;;7.68;5.00;;;17.80;99.90;;;;;;5090340;28;20389;-68
2023/07/24 02:01:43;;;;;;;6.97;4.90;;;17.80;99.90;;;;;;5090345;28;20028;-69
2023/07/24 02:04:08;;;;;;;6.43;4.78;;;17.70;99.90;;;;;;5090186;28;20036;-69
2023/07/24 02:06:34;;;;;;;6.03;4.70;;;17.70;99.90;;;;;;5089914;28;20021;-69
2023/07/24 02:08:59;;;;;;;5.40;4.65;;;17.60;99.90;;;;;;5089626;28;20026;-68
2023/07/24 02:11:25;;;;;;;10.57;4.95;;;17.60;99.90;;;;;;5090066;28;20028;-69
2023/07/24 02:13:50;;;;;;;10.30;5.22;;;17.50;99.90;;;;;;5089515;28;20078;-68
2023/07/24 02:16:16;;;;;;;10.48;5.10;;;17.60;99.90;;;;;;5089908;28;20119;-68
2023/07/24 02:18:42;;;;;;;8.23;5.32;;;17.50;99.90;;;;;;5090051;28;20059;-68
2023/07/24 02:21:08;;;;;;;7.65;4.60;;;17.50;99.90;;;;;;5090003;28;20028;-69
2023/07/24 02:23:34;;;;;;;7.50;5.28;;;17.50;99.90;;;;;;5089284;28;20105;-70
2023/07/24 02:26:00;;;;;;;7.82;4.78;;;17.50;99.90;;;;;;5089348;28;20030;-68
2023/07/24 02:28:26;;;;;;;6.43;4.60;;;17.60;99.90;;;;;;5089765;28;20025;-68
2023/07/24 02:30:55;;;;;;;9.07;4.93;;;17.40;99.90;;;;;;5089737;28;20051;-68
2023/07/24 02:33:21;;;;;;;8.02;5.47;;;17.40;99.90;;;;;;5089666;28;20165;-69
2023/07/24 02:35:47;;;;;;;9.63;5.55;;;17.40;99.90;;;;;;5079288;28;20119;-68
2023/07/24 02:38:12;;;;;;;7.05;5.47;;;17.30;99.90;;;;;;5075694;28;20032;-68
2023/07/24 02:40:41;;;;;;;6.50;4.57;;;17.30;99.90;;;;;;5075974;28;20035;-69
2023/07/24 02:43:06;;;;;;;6.75;4.10;;;17.20;99.90;;;;;;5076090;28;20032;-68
2023/07/24 02:45:34;;;;;;;8.82;4.95;;;17.10;99.90;;;;;;5075813;28;20032;-68
2023/07/24 02:48:01;;;;;;;6.40;4.43;;;17.00;99.90;;;;;;5075703;28;20209;-69
2023/07/24 02:50:27;;;;;;;7.13;4.85;;;16.90;99.90;;;;;;5075840;28;20470;-69
2023/07/24 02:52:52;;;;;;;8.27;4.68;;;16.90;99.90;;;;;;5075329;28;20066;-68
2023/07/24 02:55:18;;;;;;;6.50;4.88;;;16.90;99.90;;;;;;5075948;28;20025;-68
2023/07/24 02:57:43;;;;;;;11.88;5.32;;;16.90;99.90;;;;;;5075289;28;20083;-68
2023/07/24 03:00:10;;;;;;;10.85;5.00;;;16.90;99.90;;;;;;5075374;28;20170;-68
2023/07/24 03:02:35;;;;;;;8.70;5.35;;;16.80;99.90;;;;;;5075692;28;20017;-69
2023/07/24 03:05:01;;;;;;;10.40;5.47;;;16.80;99.90;;;;;;5075595;28;20032;-69
2023/07/24 03:07:27;;;;;;;6.13;4.90;;;16.80;99.90;;;;;;5075515;28;20032;-68
2023/07/24 03:09:52;;;;;;;10.20;5.47;;;16.80;99.90;;;;;;5075461;28;20036;-68
2023/07/24 03:12:18;;;;;;;8.90;5.20;;;16.80;99.90;;;;;;5075473;28;20028;-68
2023/07/24 03:14:43;;;;;;;9.02;5.07;;;16.90;99.90;;;;;;5075409;28;20028;-68
2023/07/24 03:17:09;;;;;;;11.82;4.85;;;16.90;99.90;;;;;;5075471;28;20070;-69
2023/07/24 03:19:34;;;;;;;9.60;5.30;;;16.80;99.90;;;;;;5075301;28;20033;-70
2023/07/24 03:22:00;;;;;;;6.75;4.80;;;16.80;99.90;;;;;;5075267;28;20036;-69
2023/07/24 03:24:25;;;;;;;5.68;4.50;;;16.80;99.90;;;;;;5074772;28;20482;-69
2023/07/24 03:26:51;;;;;;;5.45;3.88;;;16.80;99.90;;;;;;5075104;28;20032;-69
2023/07/24 03:29:16;;;;;;;6.55;4.50;;;16.80;99.90;;;;;;5075042;28;20028;-70
2023/07/24 03:31:42;;;;;;;7.15;4.47;;;16.90;99.90;;;;;;5074630;28;20025;-68
2023/07/24 03:34:07;;;;;;;7.10;4.90;;;16.80;99.90;;;;;;5074855;28;20028;-68
2023/07/24 03:36:35;;;;;;;8.82;5.22;;;16.80;99.90;;;;;;5074707;28;20029;-70
2023/07/24 03:39:01;;;;;;;9.40;5.50;;;16.80;99.90;;;;;;5074904;28;20539;-69
2023/07/24 03:41:26;;;;;;;9.07;4.82;;;16.90;99.90;;;;;;5074603;28;20050;-69
2023/07/24 03:43:52;;;;;;;9.88;4.85;;;16.90;99.90;;;;;;5074713;28;20078;-69
2023/07/24 03:46:17;;;;;;;6.72;4.75;;;16.90;99.90;;;;;;5073763;28;20024;-69
2023/07/24 03:48:43;;;;;;;7.07;4.85;;;17.00;99.90;;;;;;5074599;28;20115;-68
2023/07/24 03:51:08;;;;;;;6.05;4.95;;;17.00;99.90;;;;;;5074686;28;20031;-70
2023/07/24 03:53:34;;;;;;;9.90;5.35;;;17.00;99.90;;;;;;5074215;28;20111;-68
2023/07/24 03:55:59;;;;;;;8.80;5.38;;;17.10;99.90;;;;;;5074689;28;20031;-70
2023/07/24 03:58:25;;;;;;;9.95;5.35;;;17.10;99.90;;;;;;5074530;28;20029;-69
2023/07/24 04:00:50;;;;;;;8.57;5.78;;;17.20;99.90;;;;;;5074505;28;20078;-68
2023/07/24 04:03:16;;;;;;;7.43;5.68;;;17.20;99.90;;;;;;5074015;28;20531;-69
2023/07/24 04:05:42;;;;;;;7.88;5.45;;;17.20;99.90;;;;;;5074503;28;20035;-69
2023/07/24 04:08:08;;;;;;;9.40;5.75;;;17.20;99.90;;;;;;5073917;28;20363;-69
2023/07/24 04:10:33;;;;;;;10.50;6.20;;;17.20;99.90;;;;;;5074560;28;20068;-68
2023/07/24 04:12:59;;;;;;;10.07;6.50;;;17.30;99.90;;;;;;5074284;28;20038;-68
2023/07/24 04:15:24;;;;;;;9.65;5.93;;;17.40;99.90;;;;;;5074265;28;20033;-69
2023/07/24 04:17:50;;;;;;;10.30;6.00;;;17.50;99.90;;;;;;5074238;28;20037;-68
2023/07/24 04:20:15;;;;;;;11.95;5.95;;;17.60;99.90;;;;;;5074040;28;20033;-69
2023/07/24 04:22:41;;;;;;;9.80;5.78;;;17.70;99.90;;;;;;5073853;28;20034;-69
2023/07/24 04:25:07;;;;;;;9.43;6.75;;;17.70;99.90;;;;;;5074140;28;20025;-68
2023/07/24 04:27:32;;;;;;;15.07;6.88;;;17.80;99.90;;;;;;5074063;28;20390;-68
2023/07/24 04:29:58;;;;;;;10.23;6.47;;;17.90;99.90;;;;;;5073575;28;20028;-69
2023/07/24 04:32:25;;;;;;;11.25;6.13;;;17.90;99.90;;;;;;5073537;28;20028;-69
2023/07/24 04:34:51;;;;;;;10.43;6.82;;;18.00;99.90;;;;;;5073360;28;20021;-68
2023/07/24 04:37:16;;;;;;;14.88;6.47;;;18.00;99.90;;;;;;5073298;28;20020;-68
2023/07/24 04:39:42;;;;;;;12.30;6.65;;;18.10;99.90;;;;;;5073835;28;20031;-68
2023/07/24 04:42:07;;;;;;;9.63;6.32;;;18.10;99.90;;;;;;5073809;28;20497;-69
2023/07/24 04:44:33;;;;;;;9.35;6.55;;;18.20;99.90;;;;;;5073190;28;20028;-70
2023/07/24 04:46:58;;;;;;;11.07;7.00;;;18.20;99.90;;;;;;5073276;28;20025;-69
2023/07/24 04:49:24;;;;;;;11.73;6.32;;;18.20;99.90;;;;;;5073718;28;20027;-69
2023/07/24 04:51:51;;;;;;;10.25;6.32;;;18.30;99.90;;;;;;5073534;28;20028;-68
2023/07/24 04:54:17;;;;;;;11.50;6.45;;;18.30;99.90;;;;;;5073607;28;20111;-69
2023/07/24 04:56:42;;;;;;;9.40;6.25;;;18.30;99.90;;;;;;5073617;28;20486;-68
2023/07/24 04:59:08;;;;;;;9.98;6.60;;;18.30;99.90;;;;;;5073456;28;20115;-68
2023/07/24 05:01:34;;;;;;;10.68;6.25;;;18.20;99.90;;;;;;5073585;28;20111;-68
2023/07/24 05:03:59;;;;;;;12.95;6.70;;;18.20;99.90;;;;;;5072950;28;20086;-69
2023/07/24 05:06:25;;;;;;;13.48;6.75;;;18.20;99.90;;;;;;5073431;28;20031;-69
2023/07/24 05:08:53;;;;;;;11.05;6.00;;;18.30;99.90;;;;;;5073413;28;20478;-68
2023/07/24 05:11:18;;;;;;;10.88;6.10;;;18.30;99.90;;;;;;5073341;28;20047;-69
2023/07/24 05:13:44;;;;;;;10.80;6.57;;;18.30;99.90;;;;;;5073224;28;20062;-68
2023/07/24 05:16:09;;;;;;;10.57;5.93;;;18.40;99.90;;;;;;5073311;28;20068;-68
2023/07/24 05:18:35;;;;;;;9.85;6.10;;;18.40;99.90;;;;;;5073417;28;20032;-68
2023/07/24 05:21:00;;;;;;;21.55;7.88;;;18.40;99.90;;;;;;5073269;28;20033;-68
2023/07/24 05:23:26;;;;;;;9.73;6.47;;;18.30;99.90;;;;;;5072612;28;20044;-69
2023/07/24 05:26:00;;;;;;;11.23;6.85;;;18.10;99.90;;;;;;5073308;28;20029;-69
2023/07/24 05:28:27;;;;;;;12.57;6.78;;;18.10;99.90;;;;;;5072734;28;20078;-69
2023/07/24 05:30:52;;;;;;;12.52;6.82;;;18.10;99.90;;;;;;5073255;28;20033;-68
2023/07/24 05:33:18;;;;;;;9.68;7.13;;;18.10;99.90;;;;;;5073228;28;20104;-67
2023/07/24 05:35:43;;;;;;;10.80;6.85;;;18.10;99.90;;;;;;5072799;28;20437;-69
2023/07/24 05:38:09;;;;;;;10.40;7.05;;;18.10;99.90;;;;;;5072889;28;20460;-69
2023/07/24 05:40:35;;;;;;;16.52;7.22;;;18.10;99.90;;;;;;5072949;28;20031;-70
2023/07/24 05:43:00;;;;;;;13.75;6.82;;;18.20;99.90;;;;;;5073041;28;20076;-69
2023/07/24 05:45:27;;;;;;;17.70;7.65;;;18.20;99.90;;;;;;5072597;28;20024;-70
2023/07/24 05:47:53;;;;;;;14.30;7.10;;;18.10;99.90;;;;;;5072472;28;20047;-68
2023/07/24 05:50:18;;;;;;;11.57;6.90;;;18.10;99.90;;;;;;5072995;28;20032;-68
2023/07/24 05:52:44;;;;;;;17.63;8.32;;;18.10;99.90;;;;;;5072955;28;20387;-68
2023/07/24 05:55:10;;;;;;;13.85;7.70;;;18.10;99.90;;;;;;5073118;28;20027;-68
2023/07/24 05:57:36;;;;;;;11.55;7.53;;;18.10;99.90;;;;;;5072954;28;20031;-68
2023/07/24 06:00:03;;;;;;;14.40;7.75;;;18.10;99.90;;;;;;5073184;28;20037;-69
2023/07/24 06:02:28;;;;;;;17.77;8.05;;;18.10;99.90;;;;;;5072270;28;20031;-68
2023/07/24 06:04:54;;;;;;;15.45;7.65;;;18.10;99.90;;;;;;5072376;28;20119;-68
2023/07/24 06:07:19;;;;;;;13.50;7.20;;;18.20;99.90;;;;;;5072904;28;20367;-68
2023/07/24 06:09:46;;;;;;;13.32;7.38;;;18.20;99.90;;;;;;5072390;28;20364;-67
2023/07/24 06:12:12;;;;;;;17.45;7.45;;;18.20;99.90;;;;;;5076230;28;20067;-68
2023/07/24 06:14:37;;;;;;;15.57;7.68;;;18.20;99.90;;;;;;5075680;28;20478;-68
2023/07/24 06:17:03;;;;;;;13.63;8.30;;;18.20;99.90;;;;;;5076296;28;20416;-69
2023/07/24 06:19:29;;;;;;;16.48;8.15;;;18.30;99.90;;;;;;5075906;28;20036;-68
2023/07/24 06:21:54;;;;;;;13.27;7.78;;;18.30;99.90;;;;;;5076405;28;20028;-68
2023/07/24 06:24:20;;;;;;;14.57;8.05;;;18.30;99.90;;;;;;5075861;28;20127;-69
2023/07/24 06:26:46;;;;;;;13.27;7.80;;;18.30;99.90;;;;;;5075850;28;20178;-68
2023/07/24 06:29:11;;;;;;;14.60;9.02;;;18.30;99.90;;;;;;5075638;28;20028;-68
2023/07/24 06:31:37;;;;;;;13.02;8.23;;;18.30;99.90;;;;;;5075522;28;20124;-68
2023/07/24 06:34:02;;;;;;;14.75;8.45;;;18.40;99.90;;;;;;5055957;28;20117;-68
2023/07/24 06:36:28;;;;;;;9.98;7.15;;;18.50;99.90;;;;;;5055547;28;20036;-69
2023/07/24 06:38:53;;;;;;;13.02;8.20;;;18.70;99.90;;;;;;5054561;28;21129;-70
2023/07/24 06:41:21;;;;;;;12.63;7.20;;;18.90;99.90;;;;;;5055527;28;20486;-69
2023/07/24 06:43:46;;;;;;;12.13;6.70;;;19.30;99.90;;;;;;5055476;28;20479;-68
2023/07/24 06:46:12;;;;;;;10.02;6.03;;;19.20;99.90;;;;;;5054862;28;20032;-68
2023/07/24 06:48:37;;;;;;;11.75;6.20;;;19.20;99.90;;;;;;5056056;28;20040;-69
2023/07/24 06:51:05;;;;;;;9.98;6.82;;;19.10;99.90;;;;;;5055093;28;20032;-68
2023/07/24 06:53:31;;;;;;;12.68;7.50;;;19.10;99.90;;;;;;5055713;28;20036;-68
2023/07/24 06:55:56;;;;;;;12.75;7.85;;;18.90;99.90;;;;;;5055638;28;20393;-69
2023/07/24 06:58:22;;;;;;;12.40;7.20;;;18.90;99.90;;;;;;5054903;28;20041;-68
2023/07/24 07:00:47;;;;;;;10.45;7.32;;;18.90;99.90;;;;;;5051978;28;20037;-69
2023/07/24 07:03:13;;;;;;;10.70;7.10;;;18.90;99.90;;;;;;5054139;28;20020;-69
2023/07/24 07:05:38;;;;;;;8.40;6.20;;;18.90;99.90;;;;;;5054797;28;20017;-71
2023/07/24 07:08:04;;;;;;;8.25;6.18;;;18.90;99.90;;;;;;5054794;28;20067;-72
2023/07/24 07:10:31;;;;;;;9.30;5.90;;;19.00;99.90;;;;;;5054517;28;20029;-71
2023/07/24 07:12:57;;;;;;;9.80;5.82;;;19.10;99.90;;;;;;5055129;28;20074;-72
2023/07/24 07:15:22;;;;;;;8.27;5.57;;;19.10;99.90;;;;;;5054437;28;20104;-72
2023/07/24 07:17:48;;;;;;;7.93;5.88;;;19.40;99.90;;;;;;5054350;28;20098;-71
2023/07/24 07:20:13;;;;;;;7.63;5.38;;;19.50;99.90;;;;;;5053705;28;20037;-72
2023/07/24 07:22:39;;;;;;;6.72;5.07;;;19.60;99.90;;;;;;5054626;28;20036;-72
2023/07/24 07:25:05;;;;;;;8.35;5.95;;;19.70;99.90;;;;;;5055880;28;20029;-69
2023/07/24 07:27:30;;;;;;;9.77;6.30;;;19.70;99.90;;;;;;5054448;28;20060;-68
2023/07/24 07:29:56;;;;;;;13.80;6.57;;;19.70;99.90;;;;;;5053944;28;20036;-69
2023/07/24 07:32:21;;;;;;;7.85;6.05;;;19.80;99.90;;;;;;5053835;28;20025;-69
2023/07/24 07:34:47;;;;;;;9.85;6.43;;;20.00;99.90;;;;;;5054514;28;20037;-69
2023/07/24 07:37:12;;;;;;;15.90;7.28;;;19.90;99.90;;;;;;5054394;28;20071;-68
2023/07/24 07:39:38;;;;;;;10.23;7.10;;;20.00;99.90;;;;;;5053907;28;20029;-69
2023/07/24 07:42:03;;;;;;;10.95;7.03;;;19.90;99.90;;;;;;5053468;28;20029;-69
2023/07/24 07:44:29;;;;;;;14.80;7.45;;;19.90;99.90;;;;;;5053818;28;20040;-69
2023/07/24 07:46:54;;;;;;;11.80;6.85;;;19.90;99.90;;;;;;5054514;28;20029;-69
2023/07/24 07:49:20;;;;;;;9.15;6.53;;;19.90;99.90;;;;;;5054227;28;20040;-69
2023/07/24 07:51:46;;;;;;;11.93;6.78;;;20.10;99.90;;;;;;5053676;28;20017;-69
2023/07/24 07:54:11;;;;;;;11.30;7.32;;;20.00;99.90;;;;;;5054051;28;20029;-69
2023/07/24 07:56:37;;;;;;;11.35;6.63;;;20.00;99.90;;;;;;5054091;28;20406;-68
2023/07/24 07:59:02;;;;;;;10.95;6.50;;;20.00;99.90;;;;;;5054488;28;20114;-67
2023/07/24 08:01:28;;;;;;;9.65;5.97;;;19.80;99.90;;;;;;5053782;28;20037;-69
2023/07/24 08:03:53;;;;;;;8.30;6.68;;;19.80;99.90;;;;;;5053173;28;20040;-69
2023/07/24 08:06:21;;;;;;;10.02;6.72;;;19.80;99.90;;;;;;5053485;28;20029;-71
2023/07/24 08:08:46;;;;;;;9.32;6.70;;;19.80;99.90;;;;;;5053267;28;20029;-70
2023/07/24 08:11:12;;;;;;;10.82;7.03;;;19.80;99.90;;;;;;5052979;28;20029;-70
2023/07/24 08:13:37;;;;;;;9.30;7.22;;;19.90;99.90;;;;;;5052566;28;20115;-70
2023/07/24 08:16:03;;;;;;;8.90;6.53;;;20.00;99.90;;;;;;5052629;28;20100;-71
2023/07/24 08:18:30;;;;;;;11.80;6.50;;;20.30;96.90;;;;;;5053635;28;20059;-71
2023/07/24 08:20:56;;;;;;;11.18;6.45;;;20.60;91.10;;;;;;5053851;28;20031;-72
2023/07/24 08:23:21;;;;;;;8.05;5.82;;;20.60;78.70;;;;;;5053702;28;20398;-69
2023/07/24 08:25:55;;;;;;;7.68;5.68;;;20.60;73.40;;;;;;5053905;28;20025;-71
2023/07/24 08:28:21;;;;;;;8.95;5.85;;;21.00;71.30;;;;;;5053850;28;20032;-71
2023/07/24 08:30:55;;;;;;;7.35;5.75;;;20.70;39.80;;;;;;5053444;28;20372;-70
2023/07/24 08:33:20;;;;;;;9.95;5.90;;;20.50;52.10;;;;;;5052444;28;20085;-72
2023/07/24 08:35:46;;;;;;;11.40;5.75;;;20.30;66.70;;;;;;5053093;28;20182;-70
2023/07/24 08:38:11;;;;;;;9.20;5.32;;;20.30;70.90;;;;;;5053305;28;20029;-69
2023/07/24 08:40:39;;;;;;;9.73;5.47;;;20.30;60.80;;;;;;5052279;28;20102;-70
2023/07/24 08:43:05;;;;;;;7.22;4.95;;;20.30;57.70;;;;;;5052507;28;20036;-71
2023/07/24 08:45:31;;;;;;;6.28;4.63;;;20.50;54.50;;;;;;5052209;28;20043;-71
2023/07/24 08:47:58;;;;;;;8.13;5.03;;;20.80;58.30;;;;;;5053321;28;20028;-72
2023/07/24 08:50:26;;;;;;;7.93;5.10;;;21.00;29.60;;;;;;5053150;28;20029;-71
2023/07/24 08:52:51;;;;;;;8.60;4.93;;;21.30;8.30;;;;;;5052796;28;20063;-71
2023/07/24 08:55:18;;;;;;;8.15;4.60;;;21.40;12.30;;;;;;5053570;28;20491;-71
2023/07/24 08:57:43;;;;;;;7.18;5.03;;;21.70;1.00;;;;;;5052920;28;20438;-72
2023/07/24 09:00:09;;;;;;;9.35;5.60;;;21.60;7.50;;;;;;5054058;28;20063;-72
2023/07/24 09:02:35;;;;;;;9.88;5.55;;;21.50;2.30;;;;;;5058026;28;20075;-72
2023/07/24 09:05:02;;;;;;;8.05;5.45;;;21.70;1.00;;;;;;5052085;28;20395;-73
2023/07/24 09:07:29;;;;;;;6.57;4.60;;;21.70;1.00;;;;;;5052725;28;20483;-71
2023/07/24 09:09:54;;;;;;;9.43;5.53;;;21.50;1.00;;;;;;5052209;28;20104;-72
2023/07/24 09:12:23;;;;;;;9.55;6.03;;;21.50;1.00;;;;;;5052581;28;20116;-73
2023/07/24 09:14:48;;;;;;;6.75;5.35;;;21.40;1.00;;;;;;5052144;28;20032;-72
2023/07/24 09:17:14;;;;;;;8.52;5.20;;;21.40;1.00;;;;;;5052891;28;20540;-72
2023/07/24 09:19:40;;;;;;;9.80;5.82;;;21.10;1.00;;;;;;5051921;28;20036;-71
2023/07/24 09:22:14;;;;;;;9.65;5.38;;;21.00;22.50;;;;;;5052297;28;20063;-72
2023/07/24 09:24:56;;;;;;;11.00;7.40;;;20.70;69.10;;;;;;5052746;28;20179;-70
2023/07/24 09:27:28;;;;;;;10.52;7.68;;;20.00;99.90;;;;;;5052757;28;20123;-73
2023/07/24 09:29:54;;;;;;;11.32;8.70;;;19.50;99.90;;;;;;5051743;28;20032;-74
2023/07/24 09:32:21;;;;;;;11.32;9.00;;;19.40;99.90;;;;;;5052276;28;20110;-71
2023/07/24 09:34:47;;;;;;;12.95;9.20;;;19.40;99.90;;;;;;5052551;28;20033;-68
2023/07/24 09:37:26;;;;;;;11.98;9.50;;;19.40;99.90;;;;;;5052137;28;20029;-68
2023/07/24 09:39:52;;;;;;;10.32;8.80;;;19.60;99.90;;;;;;5052507;28;20040;-68
2023/07/24 09:42:17;;;;;;;9.45;8.32;;;19.80;99.90;;;;;;5052100;28;20398;-67
2023/07/24 09:44:43;;;;;;;10.35;8.90;;;19.40;99.90;;;;;;5051883;28;20098;-67
2023/07/24 09:47:08;;;;;;;10.75;9.27;;;19.20;99.90;;;;;;5055923;28;20112;-68
2023/07/24 09:49:34;;;;;;;8.60;7.70;;;19.20;99.90;;;;;;5056064;28;20060;-67
2023/07/24 09:52:05;;;;;;;8.63;6.72;;;19.20;99.90;;;;;;5056460;28;20036;-69
2023/07/24 09:54:40;;;;;;;9.55;7.28;;;19.10;99.90;;;;;;5056138;28;20041;-68
2023/07/24 09:57:08;;;;;;;11.25;8.95;;;18.90;99.90;;;;;;5056715;28;20394;-69
2023/07/24 09:59:34;;;;;;;13.40;8.73;;;18.90;99.90;;;;;;5050610;28;20048;-69
2023/07/24 10:02:01;;;;;;;12.75;9.95;;;19.20;99.90;;;;;;5055671;28;20045;-69
2023/07/24 10:04:27;;;;;;;15.18;10.00;;;19.70;99.90;;;;;;5055930;28;20024;-69
2023/07/24 10:06:53;;;;;;;11.40;8.93;;;20.20;99.90;;;;;;5056268;28;20052;-69
2023/07/24 10:09:21;;;;;;;10.68;9.10;;;20.60;99.90;;;;;;5055725;28;20048;-69
2023/07/24 10:11:47;;;;;;;9.45;7.88;;;21.50;99.90;;;;;;5054771;28;20057;-68
2023/07/24 10:14:12;;;;;;;11.60;8.70;;;22.00;90.50;;;;;;5055119;28;20063;-68
2023/07/24 10:16:39;;;;;;;8.70;7.80;;;22.40;73.30;;;;;;5055599;28;20120;-70
2023/07/24 10:19:15;;;;;;;9.05;6.63;;;21.70;97.20;;;;;;5054636;28;20099;-69
2023/07/24 10:21:46;;;;;;;7.03;5.70;;;21.50;96.70;;;;;;5054736;28;20028;-69
2023/07/24 10:24:11;;;;;;;6.43;5.75;;;22.00;62.80;;;;;;5055176;28;20048;-69
2023/07/24 10:26:37;;;;;;;9.02;5.95;;;21.80;81.00;;;;;;5055382;28;20086;-68
2023/07/24 10:29:02;;;;;;;8.75;5.88;;;21.80;92.40;;;;;;5054553;28;20104;-68
2023/07/24 10:31:29;;;;;;;8.68;5.72;;;21.50;61.30;;;;;;5055319;28;20029;-68
2023/07/24 10:33:56;;;;;;;6.68;5.40;;;21.60;82.10;;;;;;5055345;28;20116;-69
2023/07/24 10:36:24;;;;;;;7.75;6.38;;;21.40;93.50;;;;;;5055551;28;20029;-69
2023/07/24 10:38:56;;;;;;;8.25;5.55;;;21.20;99.90;;;;;;5055940;28;20025;-69
2023/07/24 10:41:22;;;;;;;9.52;6.45;;;20.90;99.90;;;;;;5055813;28;20063;-69
2023/07/24 10:43:52;;;;;;;10.25;5.97;;;20.80;99.90;;;;;;5049470;28;20072;-69
2023/07/24 10:46:19;;;;;;;7.97;5.82;;;20.70;99.90;;;;;;5055624;28;20510;-68
2023/07/24 10:48:48;;;;;;;7.93;5.88;;;20.70;99.90;;;;;;5055763;28;20021;-69
2023/07/24 10:51:14;;;;;;;8.98;5.72;;;20.50;99.90;;;;;;5055571;28;20031;-69
2023/07/24 10:53:44;;;;;;;7.05;5.97;;;20.50;99.90;;;;;;5054677;28;20103;-69
2023/07/24 10:56:10;;;;;;;9.60;6.63;;;20.70;99.90;;;;;;5055122;28;20542;-69
2023/07/24 10:58:35;;;;;;;10.18;6.40;;;20.80;99.90;;;;;;5054109;28;20117;-69
2023/07/24 11:01:04;;;;;;;10.20;7.00;;;20.80;99.90;;;;;;5055139;28;20116;-68
2023/07/24 11:03:31;;;;;;;8.45;6.40;;;20.80;99.90;;;;;;5054795;28;20025;-69
2023/07/24 11:05:58;;;;;;;10.40;5.80;;;20.80;99.90;;;;;;5053580;28;20462;-69
2023/07/24 11:08:24;;;;;;;10.60;6.35;;;20.90;99.90;;;;;;5054526;28;20051;-71
2023/07/24 11:10:51;;;;;;;8.50;5.30;;;20.90;99.90;;;;;;5054935;28;20075;-70
2023/07/24 11:13:19;;;;;;;10.07;5.65;;;20.70;99.90;;;;;;5053652;28;20170;-69
2023/07/24 11:15:48;;;;;;;12.20;6.18;;;20.50;99.90;;;;;;5053976;28;20029;-70
2023/07/24 11:18:13;;;;;;;7.97;6.80;;;20.70;99.90;;;;;;5051484;28;20021;-70
2023/07/24 11:20:52;;;;;;;7.45;6.32;;;20.40;99.90;;;;;;5054723;28;20033;-72
2023/07/24 11:23:19;;;;;;;7.13;5.63;;;20.30;99.90;;;;;;5053971;28;20123;-69
2023/07/24 11:25:46;;;;;;;9.93;5.85;;;20.50;99.90;;;;;;5054492;28;20025;-71
2023/07/24 11:28:13;;;;;;;8.95;5.45;;;20.80;99.90;;;;;;5054144;28;20398;-70
2023/07/24 11:30:40;;;;;;;9.88;5.68;;;21.10;99.90;;;;;;5053933;28;20596;-70
2023/07/24 11:33:07;;;;;;;9.48;5.80;;;21.20;99.90;;;;;;5054204;28;20110;-69
2023/07/24 11:35:35;;;;;;;8.18;5.55;;;21.30;99.90;;;;;;5053532;28;20029;-71
2023/07/24 11:38:01;;;;;;;9.23;6.45;;;21.20;96.00;;;;;;5054083;28;20025;-71
2023/07/24 11:40:44;;;;;;;9.05;6.30;;;21.20;86.80;;;;;;5054013;28;20075;-70
2023/07/24 11:43:19;;;;;;;9.57;6.22;;;21.40;65.60;;;;;;5054248;28;20418;-71
2023/07/24 11:45:48;;;;;;;8.50;6.72;;;21.80;63.20;;;;;;5054600;28;20035;-70
2023/07/24 11:48:14;;;;;;;7.85;5.95;;;22.30;79.70;;;;;;5054250;28;20024;-71
2023/07/24 11:50:49;;;;;;;7.72;6.72;;;22.20;80.50;;;;;;5053916;28;20017;-68
2023/07/24 11:53:31;;;;;;;9.50;6.43;;;21.90;70.90;;;;;;5054435;28;20043;-68
2023/07/24 11:55:59;;;;;;;10.57;7.38;;;21.60;53.10;;;;;;5053972;28;20479;-67
2023/07/24 11:58:27;;;;;;;8.93;7.53;;;21.50;99.90;;;;;;5054334;28;20025;-67
2023/07/24 12:00:53;;;;;;;11.70;8.27;;;21.20;88.70;;;;;;5053987;28;20546;-67
2023/07/24 12:03:21;;;;;;;11.38;8.45;;;20.90;99.90;;;;;;5053932;28;20039;-70
2023/07/24 12:05:47;;;;;;;13.32;8.80;;;20.60;99.90;;;;;;5054742;28;20037;-69
2023/07/24 12:08:14;;;;;;;12.18;9.07;;;20.50;99.90;;;;;;5053331;28;20418;-70
2023/07/24 12:10:40;;;;;;;11.65;8.25;;;20.20;99.90;;;;;;5054395;28;20025;-70
2023/07/24 12:13:06;;;;;;;10.98;8.95;;;20.00;99.90;;;;;;5054099;28;20055;-68
2023/07/24 12:15:33;;;;;;;13.88;10.38;;;19.80;99.90;;;;;;5053812;28;20022;-69
2023/07/24 12:17:59;;;;;;;18.42;9.98;;;19.60;99.90;;;;;;5054960;28;20048;-70
2023/07/24 12:20:25;;;;;;;12.43;10.70;;;19.60;99.90;;;;;;5052480;28;20479;-69
2023/07/24 12:22:50;;;;;;;12.50;10.50;;;19.40;99.90;;;;;;5053485;28;20025;-68
2023/07/24 12:25:16;;;;;;;16.23;11.23;;;19.30;99.90;;;;;;5053496;28;20589;-69
2023/07/24 12:27:42;;;;;;;15.80;11.27;;;19.30;99.90;;;;;;5053932;28;20031;-69
2023/07/24 12:30:08;;;;;;;12.98;10.32;;;19.30;99.90;;;;;;5053841;28;20037;-69
2023/07/24 12:32:34;;;;;;;12.93;9.65;;;19.30;99.90;;;;;;5053406;28;20086;-69
2023/07/24 12:35:00;;;;;;;12.95;10.80;;;19.20;99.90;;;;;;5053318;28;20041;-69
2023/07/24 12:40:02;;;;;;;14.43;11.05;;;19.10;99.90;;;;;;5877332;22;20058;-62
2023/07/24 12:42:27;;;;;;;17.60;12.45;;;19.00;99.90;;;;;;5076160;28;20542;-63
2023/07/24 12:44:53;;;;;;;17.42;12.50;;;18.90;99.90;;;;;;5074153;28;20032;-65